In Rescue
 
Open Full Screen Window  High Contrast Mode
Wind Gusting 20 knots
12
January 20, 2021 4:01 PM CST
Weather Information
Wind Direction
  260 °
Wind Speed
  12 kt (14 mph)
Wind Gust
  20 kt (23 mph)
Altimeter
29.38 in
Visibility
10 SM
Temperature
03° C
37° F
Dewpoint
-03° C
27° F
Humidity
65%
1hr Rain Fall
00.00 in.
24hr Rain Fall
00.00 in.
Sky Condition
Scattered @ 5,000 ft
Scattered @ 4,500 ft
VFR

METAR KHZX 202201Z AUTO 26012G20KT 10SM SCT045 SCT050 03/M03 A2938 RMK AO2

FAA Disclaimer: The data displayed is for advisory purposes only and is not to be used for flight planning or operations.